Victor, Colorado
Current Conditions -  °F | °C
As of 2:56 PM on Tuesday 25 Nov 2014 (Local Time) from KCWN Reporting Station
Broken Clouds Broken Clouds  
Wind Chill: 35°   Ceiling: 16000
Heat Index: 41°   Visibility: 10mi
Dew Point: 13°   Wind: 12mph
Humidity: 31%   Direction: 210°SSW
Pressure: 29.87"   Gusts: 18mph
Location:  38.71°N, 105.14°W
Report Text: KCWN 252156Z AUTO 21010G16KT 10SM BKN160 05/M11 A2987 RMK AO2 SLP135 T00511108
Loading
Personal Weather Stations






























Interactive Weather Map New forecast layout! Learn more

10-Day Weather Forecast

Advertisements
Track Severe Weather on mobile